sensor_id;sensor_type;location;lat;lon;timestamp;pressure;altitude;pressure_sealevel;temperature;humidity
72685;BME280;61365;52.162;4.500;2023-04-03T00:01:44;103066.28;;;4.99;67.52
72685;BME280;61365;52.162;4.500;2023-04-03T00:04:10;103064.56;;;4.84;67.72
72685;BME280;61365;52.162;4.500;2023-04-03T00:06:36;103063.94;;;4.88;68.22
72685;BME280;61365;52.162;4.500;2023-04-03T00:09:02;103067.53;;;4.75;67.22
72685;BME280;61365;52.162;4.500;2023-04-03T00:11:28;103070.75;;;4.71;67.35
72685;BME280;61365;52.162;4.500;2023-04-03T00:13:55;103068.31;;;4.59;68.15
72685;BME280;61365;52.162;4.500;2023-04-03T00:16:21;103068.13;;;4.56;67.67
72685;BME280;61365;52.162;4.500;2023-04-03T00:18:47;103059.47;;;4.71;67.07
72685;BME280;61365;52.162;4.500;2023-04-03T00:21:13;103062.78;;;4.68;66.54
72685;BME280;61365;52.162;4.500;2023-04-03T00:23:40;103070.03;;;4.59;66.23
72685;BME280;61365;52.162;4.500;2023-04-03T00:26:06;103063.75;;;4.55;66.50
72685;BME280;61365;52.162;4.500;2023-04-03T00:28:32;103062.25;;;4.74;65.78
72685;BME280;61365;52.162;4.500;2023-04-03T00:30:58;103069.44;;;4.78;64.98
72685;BME280;61365;52.162;4.500;2023-04-03T00:33:24;103066.66;;;4.75;64.82
72685;BME280;61365;52.162;4.500;2023-04-03T00:35:51;103062.31;;;4.60;66.17
72685;BME280;61365;52.162;4.500;2023-04-03T00:38:17;103071.22;;;4.64;65.38
72685;BME280;61365;52.162;4.500;2023-04-03T00:40:45;103070.75;;;4.71;64.91
72685;BME280;61365;52.162;4.500;2023-04-03T00:43:19;103075.03;;;4.41;66.16
72685;BME280;61365;52.162;4.500;2023-04-03T00:45:48;103081.50;;;4.47;65.47
72685;BME280;61365;52.162;4.500;2023-04-03T00:51:14;103084.59;;;4.27;66.30
72685;BME280;61365;52.162;4.500;2023-04-03T00:53:50;103076.91;;;4.28;65.95
72685;BME280;61365;52.162;4.500;2023-04-03T00:56:21;103074.50;;;4.46;65.75
72685;BME280;61365;52.162;4.500;2023-04-03T00:58:58;103076.56;;;4.37;65.89
72685;BME280;61365;52.162;4.500;2023-04-03T01:01:27;103083.22;;;4.47;65.91
72685;BME280;61365;52.162;4.500;2023-04-03T01:03:54;103079.66;;;4.31;66.52
72685;BME280;61365;52.162;4.500;2023-04-03T01:06:23;103084.81;;;4.45;66.19
72685;BME280;61365;52.162;4.500;2023-04-03T01:08:53;103087.66;;;4.34;65.68
72685;BME280;61365;52.162;4.500;2023-04-03T01:11:21;103088.09;;;4.27;66.46
72685;BME280;61365;52.162;4.500;2023-04-03T01:13:47;103088.09;;;4.27;66.44
72685;BME280;61365;52.162;4.500;2023-04-03T01:16:14;103086.44;;;4.14;67.20
72685;BME280;61365;52.162;4.500;2023-04-03T01:18:41;103083.75;;;4.13;68.28
72685;BME280;61365;52.162;4.500;2023-04-03T01:23:49;103095.53;;;4.08;66.81
72685;BME280;61365;52.162;4.500;2023-04-03T01:26:22;103093.47;;;4.02;67.62
72685;BME280;61365;52.162;4.500;2023-04-03T01:28:48;103098.63;;;4.15;67.02
72685;BME280;61365;52.162;4.500;2023-04-03T01:33:52;103084.81;;;3.88;67.79
72685;BME280;61365;52.162;4.500;2023-04-03T01:36:21;103094.13;;;4.13;66.82
72685;BME280;61365;52.162;4.500;2023-04-03T01:38:54;103091.91;;;3.90;68.30
72685;BME280;61365;52.162;4.500;2023-04-03T01:41:21;103091.88;;;4.04;67.20
72685;BME280;61365;52.162;4.500;2023-04-03T01:43:48;103087.75;;;4.08;67.39
72685;BME280;61365;52.162;4.500;2023-04-03T01:46:15;103082.59;;;3.94;68.53
72685;BME280;61365;52.162;4.500;2023-04-03T01:48:41;103085.72;;;3.88;68.09
72685;BME280;61365;52.162;4.500;2023-04-03T01:51:08;103092.78;;;3.91;68.43
72685;BME280;61365;52.162;4.500;2023-04-03T01:53:34;103085.47;;;3.99;67.56
72685;BME280;61365;52.162;4.500;2023-04-03T01:56:00;103090.72;;;3.85;67.72
72685;BME280;61365;52.162;4.500;2023-04-03T01:58:27;103090.03;;;3.61;69.20
72685;BME280;61365;52.162;4.500;2023-04-03T02:00:53;103087.94;;;3.69;68.86
72685;BME280;61365;52.162;4.500;2023-04-03T02:03:20;103096.59;;;3.83;68.04
72685;BME280;61365;52.162;4.500;2023-04-03T02:05:46;103103.59;;;3.84;68.91
72685;BME280;61365;52.162;4.500;2023-04-03T02:08:12;103088.84;;;3.69;69.17
72685;BME280;61365;52.162;4.500;2023-04-03T02:10:39;103091.72;;;3.74;68.68
72685;BME280;61365;52.162;4.500;2023-04-03T02:13:05;103094.25;;;3.72;69.36
72685;BME280;61365;52.162;4.500;2023-04-03T02:15:32;103092.56;;;3.59;69.88
72685;BME280;61365;52.162;4.500;2023-04-03T02:17:58;103100.53;;;3.49;71.05
72685;BME280;61365;52.162;4.500;2023-04-03T02:20:24;103101.31;;;3.75;69.33
72685;BME280;61365;52.162;4.500;2023-04-03T02:22:50;103108.31;;;3.76;69.41
72685;BME280;61365;52.162;4.500;2023-04-03T02:25:16;103113.91;;;3.69;69.78
72685;BME280;61365;52.162;4.500;2023-04-03T02:27:43;103115.22;;;3.62;69.22
72685;BME280;61365;52.162;4.500;2023-04-03T02:30:09;103121.41;;;3.37;70.32
72685;BME280;61365;52.162;4.500;2023-04-03T02:32:36;103119.63;;;3.50;71.14
72685;BME280;61365;52.162;4.500;2023-04-03T02:35:02;103115.41;;;3.65;69.73
72685;BME280;61365;52.162;4.500;2023-04-03T02:37:28;103123.63;;;3.44;70.43
72685;BME280;61365;52.162;4.500;2023-04-03T02:39:55;103118.59;;;3.34;71.74
72685;BME280;61365;52.162;4.500;2023-04-03T02:42:21;103122.63;;;3.42;70.91
72685;BME280;61365;52.162;4.500;2023-04-03T02:44:47;103117.81;;;3.35;71.56
72685;BME280;61365;52.162;4.500;2023-04-03T02:47:13;103116.84;;;3.47;70.98
72685;BME280;61365;52.162;4.500;2023-04-03T02:49:39;103118.94;;;3.39;71.83
72685;BME280;61365;52.162;4.500;2023-04-03T02:52:05;103118.59;;;3.34;71.98
72685;BME280;61365;52.162;4.500;2023-04-03T02:54:32;103121.69;;;3.42;72.09
72685;BME280;61365;52.162;4.500;2023-04-03T02:56:58;103115.22;;;3.35;72.24
72685;BME280;61365;52.162;4.500;2023-04-03T02:59:24;103126.09;;;3.70;71.12
72685;BME280;61365;52.162;4.500;2023-04-03T03:01:50;103124.63;;;3.47;70.98
72685;BME280;61365;52.162;4.500;2023-04-03T03:04:16;103118.22;;;3.41;71.43
72685;BME280;61365;52.162;4.500;2023-04-03T03:06:42;103122.50;;;3.41;71.71
72685;BME280;61365;52.162;4.500;2023-04-03T03:09:09;103126.81;;;3.40;71.38
72685;BME280;61365;52.162;4.500;2023-04-03T03:11:35;103125.31;;;3.30;72.20
72685;BME280;61365;52.162;4.500;2023-04-03T03:14:01;103130.38;;;3.29;72.37
72685;BME280;61365;52.162;4.500;2023-04-03T03:16:27;103123.09;;;3.23;73.07
72685;BME280;61365;52.162;4.500;2023-04-03T03:18:53;103126.38;;;3.07;73.24
72685;BME280;61365;52.162;4.500;2023-04-03T03:21:19;103127.31;;;3.35;72.27
72685;BME280;61365;52.162;4.500;2023-04-03T03:23:45;103129.59;;;3.17;73.55
72685;BME280;61365;52.162;4.500;2023-04-03T03:26:12;103127.88;;;3.17;72.73
72685;BME280;61365;52.162;4.500;2023-04-03T03:28:38;103135.28;;;2.85;74.74
72685;BME280;61365;52.162;4.500;2023-04-03T03:31:05;103135.84;;;3.07;74.13
72685;BME280;61365;52.162;4.500;2023-04-03T03:33:31;103137.19;;;3.27;73.49
72685;BME280;61365;52.162;4.500;2023-04-03T03:35:58;103137.19;;;3.27;73.58
72685;BME280;61365;52.162;4.500;2023-04-03T03:38:24;103141.56;;;3.28;73.39
72685;BME280;61365;52.162;4.500;2023-04-03T03:40:50;103142.56;;;3.17;73.08
72685;BME280;61365;52.162;4.500;2023-04-03T03:43:17;103140.38;;;3.23;73.33
72685;BME280;61365;52.162;4.500;2023-04-03T03:45:44;103142.56;;;3.30;72.61
72685;BME280;61365;52.162;4.500;2023-04-03T03:48:11;103139.88;;;3.15;74.02
72685;BME280;61365;52.162;4.500;2023-04-03T03:50:37;103150.41;;;3.05;73.79
72685;BME280;61365;52.162;4.500;2023-04-03T03:53:04;103146.38;;;2.83;75.09
72685;BME280;61365;52.162;4.500;2023-04-03T03:55:30;103141.69;;;2.77;75.76
72685;BME280;61365;52.162;4.500;2023-04-03T03:57:56;103149.19;;;2.86;74.69
72685;BME280;61365;52.162;4.500;2023-04-03T04:00:23;103139.66;;;2.73;76.61
72685;BME280;61365;52.162;4.500;2023-04-03T04:02:49;103140.69;;;2.89;75.84
72685;BME280;61365;52.162;4.500;2023-04-03T04:05:15;103143.66;;;2.81;76.29
72685;BME280;61365;52.162;4.500;2023-04-03T04:07:41;103144.00;;;2.61;76.74
72685;BME280;61365;52.162;4.500;2023-04-03T04:10:07;103142.66;;;2.79;76.30
72685;BME280;61365;52.162;4.500;2023-04-03T04:12:33;103144.16;;;2.76;76.36
72685;BME280;61365;52.162;4.500;2023-04-03T04:15:01;103145.31;;;3.06;75.85
72685;BME280;61365;52.162;4.500;2023-04-03T04:17:28;103149.41;;;3.03;75.03
72685;BME280;61365;52.162;4.500;2023-04-03T04:19:54;103145.66;;;2.85;76.27
72685;BME280;61365;52.162;4.500;2023-04-03T04:22:20;103146.59;;;2.86;76.78
72685;BME280;61365;52.162;4.500;2023-04-03T04:24:46;103152.72;;;3.00;75.15
72685;BME280;61365;52.162;4.500;2023-04-03T04:27:12;103153.72;;;3.02;75.66
72685;BME280;61365;52.162;4.500;2023-04-03T04:29:38;103155.84;;;2.82;75.78
72685;BME280;61365;52.162;4.500;2023-04-03T04:32:04;103153.25;;;2.82;76.23
72685;BME280;61365;52.162;4.500;2023-04-03T04:34:30;103155.47;;;2.90;75.48
72685;BME280;61365;52.162;4.500;2023-04-03T04:36:57;103157.03;;;2.74;75.77
72685;BME280;61365;52.162;4.500;2023-04-03T04:39:23;103159.00;;;2.78;76.25
72685;BME280;61365;52.162;4.500;2023-04-03T04:41:49;103162.16;;;2.99;74.82
72685;BME280;61365;52.162;4.500;2023-04-03T04:44:15;103161.53;;;2.90;75.48
72685;BME280;61365;52.162;4.500;2023-04-03T04:46:41;103161.94;;;2.83;75.85
72685;BME280;61365;52.162;4.500;2023-04-03T04:49:07;103164.03;;;2.89;74.89
72685;BME280;61365;52.162;4.500;2023-04-03T04:51:33;103162.09;;;2.73;76.51
72685;BME280;61365;52.162;4.500;2023-04-03T04:54:00;103171.97;;;2.78;76.21
72685;BME280;61365;52.162;4.500;2023-04-03T04:56:26;103162.00;;;2.71;76.24
72685;BME280;61365;52.162;4.500;2023-04-03T04:58:52;103165.44;;;2.58;77.69
72685;BME280;61365;52.162;4.500;2023-04-03T05:01:18;103169.25;;;2.63;78.02
72685;BME280;61365;52.162;4.500;2023-04-03T05:03:44;103168.63;;;2.42;79.19
72685;BME280;61365;52.162;4.500;2023-04-03T05:06:10;103166.13;;;2.44;78.74
72685;BME280;61365;52.162;4.500;2023-04-03T05:08:36;103172.63;;;2.62;77.34
72685;BME280;61365;52.162;4.500;2023-04-03T05:11:02;103183.84;;;2.49;78.62
72685;BME280;61365;52.162;4.500;2023-04-03T05:13:28;103179.19;;;2.57;78.26
72685;BME280;61365;52.162;4.500;2023-04-03T05:15:55;103181.56;;;2.54;79.01
72685;BME280;61365;52.162;4.500;2023-04-03T05:18:21;103179.84;;;2.54;78.99
72685;BME280;61365;52.162;4.500;2023-04-03T05:20:50;103182.66;;;2.58;79.21
72685;BME280;61365;52.162;4.500;2023-04-03T05:23:16;103183.56;;;2.58;78.83
72685;BME280;61365;52.162;4.500;2023-04-03T05:25:43;103182.44;;;2.54;79.02
72685;BME280;61365;52.162;4.500;2023-04-03T05:28:11;103193.25;;;2.61;79.21
72685;BME280;61365;52.162;4.500;2023-04-03T05:30:37;103194.22;;;2.75;78.98
72685;BME280;61365;52.162;4.500;2023-04-03T05:33:03;103191.50;;;2.98;78.66
72685;BME280;61365;52.162;4.500;2023-04-03T05:35:29;103183.03;;;3.53;75.68
72685;BME280;61365;52.162;4.500;2023-04-03T05:37:55;103189.09;;;3.54;75.21
72685;BME280;61365;52.162;4.500;2023-04-03T05:40:21;103189.91;;;3.80;74.24
72685;BME280;61365;52.162;4.500;2023-04-03T05:42:48;103184.88;;;4.10;73.34
72685;BME280;61365;52.162;4.500;2023-04-03T05:45:14;103189.72;;;3.90;73.24
72685;BME280;61365;52.162;4.500;2023-04-03T05:47:41;103187.22;;;4.47;71.03
72685;BME280;61365;52.162;4.500;2023-04-03T05:50:07;103200.47;;;4.10;70.99
72685;BME280;61365;52.162;4.500;2023-04-03T05:52:38;103193.22;;;4.32;70.99
72685;BME280;61365;52.162;4.500;2023-04-03T05:55:08;103197.16;;;4.54;70.63
72685;BME280;61365;52.162;4.500;2023-04-03T05:57:34;103195.16;;;4.35;71.47
72685;BME280;61365;52.162;4.500;2023-04-03T06:00:00;103201.66;;;4.85;69.78
72685;BME280;61365;52.162;4.500;2023-04-03T06:02:26;103204.72;;;4.78;68.58
72685;BME280;61365;52.162;4.500;2023-04-03T06:04:53;103201.53;;;5.12;68.00
72685;BME280;61365;52.162;4.500;2023-04-03T06:07:20;103198.19;;;5.00;67.85
72685;BME280;61365;52.162;4.500;2023-04-03T06:09:50;103202.94;;;4.35;71.25
72685;BME280;61365;52.162;4.500;2023-04-03T06:12:17;103201.28;;;5.22;68.43
72685;BME280;61365;52.162;4.500;2023-04-03T06:14:43;103213.09;;;5.17;67.63
72685;BME280;61365;52.162;4.500;2023-04-03T06:17:09;103215.94;;;4.63;70.19
72685;BME280;61365;52.162;4.500;2023-04-03T06:19:36;103215.53;;;4.71;69.80
72685;BME280;61365;52.162;4.500;2023-04-03T06:22:02;103220.66;;;5.43;67.71
72685;BME280;61365;52.162;4.500;2023-04-03T06:24:28;103222.63;;;5.32;68.59
72685;BME280;61365;52.162;4.500;2023-04-03T06:26:56;103218.78;;;5.55;66.31
72685;BME280;61365;52.162;4.500;2023-04-03T06:29:22;103221.81;;;5.78;65.60
72685;BME280;61365;52.162;4.500;2023-04-03T06:31:49;103225.66;;;5.69;65.03
72685;BME280;61365;52.162;4.500;2023-04-03T06:34:16;103229.81;;;5.66;66.28
72685;BME280;61365;52.162;4.500;2023-04-03T06:36:43;103231.44;;;5.49;65.42
72685;BME280;61365;52.162;4.500;2023-04-03T06:39:15;103229.75;;;5.49;65.19
72685;BME280;61365;52.162;4.500;2023-04-03T06:41:43;103221.81;;;5.78;65.11
72685;BME280;61365;52.162;4.500;2023-04-03T06:44:10;103222.72;;;5.78;64.64
72685;BME280;61365;52.162;4.500;2023-04-03T06:46:41;103223.72;;;6.43;62.85
72685;BME280;61365;52.162;4.500;2023-04-03T06:49:09;103228.66;;;6.22;63.45
72685;BME280;61365;52.162;4.500;2023-04-03T06:51:36;103226.19;;;5.94;64.16
72685;BME280;61365;52.162;4.500;2023-04-03T06:54:02;103231.53;;;5.50;64.88
72685;BME280;61365;52.162;4.500;2023-04-03T06:56:30;103235.38;;;6.02;63.73
72685;BME280;61365;52.162;4.500;2023-04-03T06:58:57;103226.63;;;6.16;62.82
72685;BME280;61365;52.162;4.500;2023-04-03T07:01:24;103246.06;;;5.92;63.66
72685;BME280;61365;52.162;4.500;2023-04-03T07:03:53;103231.16;;;5.89;64.05
72685;BME280;61365;52.162;4.500;2023-04-03T07:06:20;103234.84;;;5.63;64.12
72685;BME280;61365;52.162;4.500;2023-04-03T07:08:47;103242.91;;;5.82;63.86
72685;BME280;61365;52.162;4.500;2023-04-03T07:11:14;103241.16;;;5.66;64.40
72685;BME280;61365;52.162;4.500;2023-04-03T07:13:41;103239.69;;;5.56;64.56
72685;BME280;61365;52.162;4.500;2023-04-03T07:16:07;103239.13;;;6.07;63.65
72685;BME280;61365;52.162;4.500;2023-04-03T07:18:34;103253.69;;;6.35;62.40
72685;BME280;61365;52.162;4.500;2023-04-03T07:21:01;103259.22;;;6.56;61.72
72685;BME280;61365;52.162;4.500;2023-04-03T07:23:28;103255.50;;;6.36;64.21
72685;BME280;61365;52.162;4.500;2023-04-03T07:25:54;103262.34;;;6.66;62.08
72685;BME280;61365;52.162;4.500;2023-04-03T07:28:21;103258.28;;;6.08;62.88
72685;BME280;61365;52.162;4.500;2023-04-03T07:30:52;103263.44;;;6.54;60.80
72685;BME280;61365;52.162;4.500;2023-04-03T07:33:39;103255.50;;;6.05;61.86
72685;BME280;61365;52.162;4.500;2023-04-03T07:36:06;103267.16;;;5.96;62.19
72685;BME280;61365;52.162;4.500;2023-04-03T07:38:33;103257.41;;;7.21;61.25
72685;BME280;61365;52.162;4.500;2023-04-03T07:41:01;103256.69;;;6.91;59.57
72685;BME280;61365;52.162;4.500;2023-04-03T07:43:28;103258.69;;;6.79;60.12
72685;BME280;61365;52.162;4.500;2023-04-03T07:45:54;103267.66;;;7.00;59.04
72685;BME280;61365;52.162;4.500;2023-04-03T07:48:21;103278.75;;;6.16;60.93
72685;BME280;61365;52.162;4.500;2023-04-03T07:50:49;103282.97;;;6.46;60.75
72685;BME280;61365;52.162;4.500;2023-04-03T07:53:16;103270.31;;;6.21;60.62
72685;BME280;61365;52.162;4.500;2023-04-03T07:55:42;103278.56;;;6.93;59.04
72685;BME280;61365;52.162;4.500;2023-04-03T07:58:12;103273.00;;;6.70;58.67
72685;BME280;61365;52.162;4.500;2023-04-03T08:00:42;103278.88;;;6.83;58.87
72685;BME280;61365;52.162;4.500;2023-04-03T08:03:10;103278.66;;;7.80;55.58
72685;BME280;61365;52.162;4.500;2023-04-03T08:05:37;103290.97;;;7.30;57.67
72685;BME280;61365;52.162;4.500;2023-04-03T08:08:07;103280.19;;;7.07;59.83
72685;BME280;61365;52.162;4.500;2023-04-03T08:10:35;103296.44;;;7.18;56.43
72685;BME280;61365;52.162;4.500;2023-04-03T08:13:01;103283.41;;;7.53;55.98
72685;BME280;61365;52.162;4.500;2023-04-03T08:15:29;103289.78;;;7.42;55.38
72685;BME280;61365;52.162;4.500;2023-04-03T08:17:56;103278.16;;;7.18;57.05
72685;BME280;61365;52.162;4.500;2023-04-03T08:20:23;103289.47;;;7.35;55.82
72685;BME280;61365;52.162;4.500;2023-04-03T08:22:49;103290.53;;;7.22;56.44
72685;BME280;61365;52.162;4.500;2023-04-03T08:25:15;103286.13;;;7.21;55.39
72685;BME280;61365;52.162;4.500;2023-04-03T08:27:43;103282.28;;;8.01;53.72
72685;BME280;61365;52.162;4.500;2023-04-03T08:30:10;103301.28;;;7.45;56.89
72685;BME280;61365;52.162;4.500;2023-04-03T08:32:36;103295.28;;;7.30;53.77
72685;BME280;61365;52.162;4.500;2023-04-03T08:35:03;103281.47;;;7.32;55.53
72685;BME280;61365;52.162;4.500;2023-04-03T08:37:30;103295.44;;;7.68;54.40
72685;BME280;61365;52.162;4.500;2023-04-03T08:39:56;103302.75;;;7.57;54.33
72685;BME280;61365;52.162;4.500;2023-04-03T08:45:17;103302.69;;;7.55;54.72
72685;BME280;61365;52.162;4.500;2023-04-03T08:48:03;103308.47;;;7.49;54.32
72685;BME280;61365;52.162;4.500;2023-04-03T08:50:34;103302.47;;;7.34;54.99
72685;BME280;61365;52.162;4.500;2023-04-03T08:53:05;103305.78;;;7.48;53.68
72685;BME280;61365;52.162;4.500;2023-04-03T08:55:39;103296.22;;;7.83;53.65
72685;BME280;61365;52.162;4.500;2023-04-03T08:58:18;103305.16;;;7.70;54.07
72685;BME280;61365;52.162;4.500;2023-04-03T09:00:49;103287.88;;;7.90;53.45
72685;BME280;61365;52.162;4.500;2023-04-03T09:03:31;103289.75;;;7.93;52.00
72685;BME280;61365;52.162;4.500;2023-04-03T09:11:31;103286.81;;;7.87;49.36
72685;BME280;61365;52.162;4.500;2023-04-03T09:16:53;103292.78;;;7.84;46.99
72685;BME280;61365;52.162;4.500;2023-04-03T09:19:22;103287.53;;;7.66;47.54
72685;BME280;61365;52.162;4.500;2023-04-03T09:22:20;103292.13;;;8.06;46.86
72685;BME280;61365;52.162;4.500;2023-04-03T09:24:55;103297.03;;;7.64;47.73
72685;BME280;61365;52.162;4.500;2023-04-03T09:27:27;103284.66;;;8.14;43.74
72685;BME280;61365;52.162;4.500;2023-04-03T09:29:54;103285.69;;;8.36;45.14
72685;BME280;61365;52.162;4.500;2023-04-03T09:32:27;103271.66;;;8.16;47.08
72685;BME280;61365;52.162;4.500;2023-04-03T09:35:06;103273.28;;;8.50;44.70
72685;BME280;61365;52.162;4.500;2023-04-03T09:37:47;103271.34;;;7.91;47.12
72685;BME280;61365;52.162;4.500;2023-04-03T09:40:36;103263.88;;;8.35;43.37
72685;BME280;61365;52.162;4.500;2023-04-03T09:43:26;103259.66;;;8.39;42.62
72685;BME280;61365;52.162;4.500;2023-04-03T09:45:55;103262.06;;;8.34;45.46
72685;BME280;61365;52.162;4.500;2023-04-03T09:48:49;103294.38;;;8.17;42.73
72685;BME280;61365;52.162;4.500;2023-04-03T09:51:16;103274.44;;;8.01;43.05
72685;BME280;61365;52.162;4.500;2023-04-03T09:53:43;103279.97;;;8.07;43.25
72685;BME280;61365;52.162;4.500;2023-04-03T09:58:39;103269.56;;;8.08;38.26
72685;BME280;61365;52.162;4.500;2023-04-03T10:01:10;103261.41;;;8.20;40.15
72685;BME280;61365;52.162;4.500;2023-04-03T10:04:14;103239.91;;;8.46;40.68
72685;BME280;61365;52.162;4.500;2023-04-03T10:06:44;103248.19;;;8.17;39.87
72685;BME280;61365;52.162;4.500;2023-04-03T10:11:59;103243.13;;;8.02;37.51
72685;BME280;61365;52.162;4.500;2023-04-03T10:14:59;103239.22;;;8.48;40.07
72685;BME280;61365;52.162;4.500;2023-04-03T10:23:00;103230.06;;;8.40;38.65
72685;BME280;61365;52.162;4.500;2023-04-03T10:25:46;103226.69;;;8.05;39.21
72685;BME280;61365;52.162;4.500;2023-04-03T10:28:48;103234.59;;;8.62;42.23
72685;BME280;61365;52.162;4.500;2023-04-03T10:34:21;103225.78;;;8.42;35.42
72685;BME280;61365;52.162;4.500;2023-04-03T10:36:54;103231.78;;;8.39;34.08
72685;BME280;61365;52.162;4.500;2023-04-03T10:39:54;103225.84;;;8.62;35.45
72685;BME280;61365;52.162;4.500;2023-04-03T10:48:24;103249.41;;;8.62;34.18
72685;BME280;61365;52.162;4.500;2023-04-03T10:51:24;103223.31;;;8.07;33.66
72685;BME280;61365;52.162;4.500;2023-04-03T10:54:34;103240.16;;;8.32;33.37
72685;BME280;61365;52.162;4.500;2023-04-03T10:56:56;103225.06;;;8.45;33.72
72685;BME280;61365;52.162;4.500;2023-04-03T11:02:50;103213.38;;;8.56;35.54
72685;BME280;61365;52.162;4.500;2023-04-03T11:05:03;103243.09;;;8.76;34.29
72685;BME280;61365;52.162;4.500;2023-04-03T11:07:50;103205.75;;;8.80;36.61
72685;BME280;61365;52.162;4.500;2023-04-03T11:10:21;103207.31;;;8.77;32.49
72685;BME280;61365;52.162;4.500;2023-04-03T11:15:45;103196.81;;;8.37;32.07
72685;BME280;61365;52.162;4.500;2023-04-03T11:20:48;103204.50;;;8.52;33.14
72685;BME280;61365;52.162;4.500;2023-04-03T11:23:39;103205.88;;;8.64;32.02
72685;BME280;61365;52.162;4.500;2023-04-03T11:26:13;103204.72;;;8.57;32.24
72685;BME280;61365;52.162;4.500;2023-04-03T11:28:42;103190.59;;;8.73;31.97
72685;BME280;61365;52.162;4.500;2023-04-03T11:36:42;103181.47;;;8.84;32.63
72685;BME280;61365;52.162;4.500;2023-04-03T11:39:18;103187.75;;;8.88;33.24
72685;BME280;61365;52.162;4.500;2023-04-03T11:41:46;103168.72;;;8.33;33.77
72685;BME280;61365;52.162;4.500;2023-04-03T11:44:35;103209.66;;;8.51;35.22
72685;BME280;61365;52.162;4.500;2023-04-03T11:47:02;103157.78;;;8.62;33.06
72685;BME280;61365;52.162;4.500;2023-04-03T12:05:49;103152.38;;;8.19;31.43
72685;BME280;61365;52.162;4.500;2023-04-03T12:16:05;103141.59;;;9.11;31.94
72685;BME280;61365;52.162;4.500;2023-04-03T12:22:04;103128.50;;;8.90;33.26
72685;BME280;61365;52.162;4.500;2023-04-03T12:26:50;103124.38;;;8.76;32.22
72685;BME280;61365;52.162;4.500;2023-04-03T12:29:25;103109.16;;;8.67;32.73
72685;BME280;61365;52.162;4.500;2023-04-03T12:46:18;103101.25;;;9.06;35.09
72685;BME280;61365;52.162;4.500;2023-04-03T12:48:29;103106.09;;;9.18;31.82
72685;BME280;61365;52.162;4.500;2023-04-03T12:50:59;103107.25;;;9.48;31.59
72685;BME280;61365;52.162;4.500;2023-04-03T12:53:33;103109.09;;;9.06;30.24
72685;BME280;61365;52.162;4.500;2023-04-03T12:58:51;103108.97;;;8.62;30.66
72685;BME280;61365;52.162;4.500;2023-04-03T13:01:23;103104.66;;;8.84;31.36
72685;BME280;61365;52.162;4.500;2023-04-03T13:03:54;103114.19;;;9.03;30.98
72685;BME280;61365;52.162;4.500;2023-04-03T13:06:23;103108.13;;;9.04;31.57
72685;BME280;61365;52.162;4.500;2023-04-03T13:08:56;103119.50;;;8.64;31.62
72685;BME280;61365;52.162;4.500;2023-04-03T13:11:27;103092.59;;;8.88;32.48
72685;BME280;61365;52.162;4.500;2023-04-03T13:14:01;103101.72;;;9.40;32.41
72685;BME280;61365;52.162;4.500;2023-04-03T13:16:31;103108.69;;;8.97;32.20
72685;BME280;61365;52.162;4.500;2023-04-03T13:18:58;103092.78;;;9.13;34.54
72685;BME280;61365;52.162;4.500;2023-04-03T13:21:26;103087.09;;;9.02;35.76
72685;BME280;61365;52.162;4.500;2023-04-03T13:23:55;103096.03;;;9.29;32.63
72685;BME280;61365;52.162;4.500;2023-04-03T13:26:26;103082.00;;;9.27;34.42
72685;BME280;61365;52.162;4.500;2023-04-03T13:28:56;103082.13;;;9.30;34.25
72685;BME280;61365;52.162;4.500;2023-04-03T13:31:29;103075.13;;;9.09;33.01
72685;BME280;61365;52.162;4.500;2023-04-03T13:33:59;103073.06;;;9.44;32.79
72685;BME280;61365;52.162;4.500;2023-04-03T13:36:35;103081.22;;;9.29;36.50
72685;BME280;61365;52.162;4.500;2023-04-03T13:41:35;103067.41;;;9.34;34.87
72685;BME280;61365;52.162;4.500;2023-04-03T13:51:52;103066.84;;;9.20;31.51
72685;BME280;61365;52.162;4.500;2023-04-03T13:54:22;103072.47;;;9.52;33.46
72685;BME280;61365;52.162;4.500;2023-04-03T13:56:55;103064.66;;;9.30;32.22
72685;BME280;61365;52.162;4.500;2023-04-03T13:59:25;103087.00;;;9.43;32.61
72685;BME280;61365;52.162;4.500;2023-04-03T14:02:05;103081.16;;;9.28;31.82
72685;BME280;61365;52.162;4.500;2023-04-03T14:07:25;103059.13;;;9.45;32.79
72685;BME280;61365;52.162;4.500;2023-04-03T14:09:52;103059.78;;;9.40;33.14
72685;BME280;61365;52.162;4.500;2023-04-03T14:12:26;103041.78;;;9.26;34.18
72685;BME280;61365;52.162;4.500;2023-04-03T14:14:56;103047.53;;;9.39;32.09
72685;BME280;61365;52.162;4.500;2023-04-03T14:17:24;103050.28;;;9.21;34.32
72685;BME280;61365;52.162;4.500;2023-04-03T14:19:52;103071.63;;;9.30;31.54
72685;BME280;61365;52.162;4.500;2023-04-03T14:22:21;103030.31;;;9.45;34.07
72685;BME280;61365;52.162;4.500;2023-04-03T14:24:54;103046.78;;;9.20;31.84
72685;BME280;61365;52.162;4.500;2023-04-03T14:27:22;103039.66;;;9.39;30.57
72685;BME280;61365;52.162;4.500;2023-04-03T14:29:52;103047.78;;;9.45;30.92
72685;BME280;61365;52.162;4.500;2023-04-03T14:32:20;103043.13;;;9.16;32.56
72685;BME280;61365;52.162;4.500;2023-04-03T14:34:49;103035.25;;;9.38;31.95
72685;BME280;61365;52.162;4.500;2023-04-03T14:37:18;103023.81;;;9.36;33.72
72685;BME280;61365;52.162;4.500;2023-04-03T14:39:47;103026.31;;;9.32;33.46
72685;BME280;61365;52.162;4.500;2023-04-03T14:42:15;103026.81;;;9.45;33.73
72685;BME280;61365;52.162;4.500;2023-04-03T14:44:44;103017.97;;;9.66;33.01
72685;BME280;61365;52.162;4.500;2023-04-03T14:47:11;103030.00;;;9.15;33.47
72685;BME280;61365;52.162;4.500;2023-04-03T14:49:39;103031.06;;;9.20;34.06
72685;BME280;61365;52.162;4.500;2023-04-03T14:52:05;103019.97;;;9.27;33.58
72685;BME280;61365;52.162;4.500;2023-04-03T14:54:32;103031.91;;;9.42;34.96
72685;BME280;61365;52.162;4.500;2023-04-03T14:56:59;103041.31;;;9.59;33.29
72685;BME280;61365;52.162;4.500;2023-04-03T14:59:26;103034.41;;;9.61;33.54
72685;BME280;61365;52.162;4.500;2023-04-03T15:01:53;103026.72;;;9.66;33.83
72685;BME280;61365;52.162;4.500;2023-04-03T15:04:20;103025.72;;;9.63;35.27